sensor_id;sensor_type;location;lat;lon;timestamp;P1;durP1;ratioP1;P2;durP2;ratioP2
67037;SDS011;53940;53.204;6.590;2022-08-19T00:01:43;1.27;;;0.70;;
67037;SDS011;53940;53.204;6.590;2022-08-19T00:04:45;1.52;;;0.70;;
67037;SDS011;53940;53.204;6.590;2022-08-19T00:07:48;1.40;;;0.75;;
67037;SDS011;53940;53.204;6.590;2022-08-19T00:10:48;1.10;;;0.70;;
67037;SDS011;53940;53.204;6.590;2022-08-19T00:13:49;1.65;;;0.77;;
67037;SDS011;53940;53.204;6.590;2022-08-19T00:16:50;1.10;;;0.70;;
67037;SDS011;53940;53.204;6.590;2022-08-19T00:19:53;1.30;;;0.90;;
67037;SDS011;53940;53.204;6.590;2022-08-19T00:22:54;1.67;;;0.75;;
67037;SDS011;53940;53.204;6.590;2022-08-19T00:25:54;0.93;;;0.63;;
67037;SDS011;53940;53.204;6.590;2022-08-19T00:28:55;1.00;;;0.80;;
67037;SDS011;53940;53.204;6.590;2022-08-19T00:31:55;1.27;;;0.73;;
67037;SDS011;53940;53.204;6.590;2022-08-19T00:34:58;1.52;;;0.70;;
67037;SDS011;53940;53.204;6.590;2022-08-19T00:37:58;1.05;;;0.63;;
67037;SDS011;53940;53.204;6.590;2022-08-19T00:41:03;1.13;;;0.70;;
67037;SDS011;53940;53.204;6.590;2022-08-19T00:44:06;1.27;;;0.63;;
67037;SDS011;53940;53.204;6.590;2022-08-19T00:47:09;1.23;;;0.73;;
67037;SDS011;53940;53.204;6.590;2022-08-19T00:50:12;1.10;;;0.73;;
67037;SDS011;53940;53.204;6.590;2022-08-19T00:53:20;1.52;;;0.80;;
67037;SDS011;53940;53.204;6.590;2022-08-19T00:56:22;1.48;;;0.75;;
67037;SDS011;53940;53.204;6.590;2022-08-19T00:59:23;1.20;;;0.70;;
67037;SDS011;53940;53.204;6.590;2022-08-19T01:02:25;1.30;;;0.80;;
67037;SDS011;53940;53.204;6.590;2022-08-19T01:05:28;1.30;;;0.75;;
67037;SDS011;53940;53.204;6.590;2022-08-19T01:08:29;1.10;;;0.77;;
67037;SDS011;53940;53.204;6.590;2022-08-19T01:11:30;1.60;;;0.85;;
67037;SDS011;53940;53.204;6.590;2022-08-19T01:14:34;1.30;;;0.80;;
67037;SDS011;53940;53.204;6.590;2022-08-19T01:17:37;1.27;;;0.80;;
67037;SDS011;53940;53.204;6.590;2022-08-19T01:20:39;1.10;;;0.70;;
67037;SDS011;53940;53.204;6.590;2022-08-19T01:23:42;2.15;;;1.00;;
67037;SDS011;53940;53.204;6.590;2022-08-19T01:26:43;1.17;;;0.75;;
67037;SDS011;53940;53.204;6.590;2022-08-19T01:29:45;1.40;;;0.80;;
67037;SDS011;53940;53.204;6.590;2022-08-19T01:32:45;1.98;;;0.90;;
67037;SDS011;53940;53.204;6.590;2022-08-19T01:35:46;1.08;;;0.70;;
67037;SDS011;53940;53.204;6.590;2022-08-19T01:38:50;2.28;;;0.90;;
67037;SDS011;53940;53.204;6.590;2022-08-19T01:41:50;1.63;;;0.93;;
67037;SDS011;53940;53.204;6.590;2022-08-19T01:44:54;1.33;;;0.90;;
67037;SDS011;53940;53.204;6.590;2022-08-19T01:47:55;1.40;;;0.98;;
67037;SDS011;53940;53.204;6.590;2022-08-19T01:50:56;1.25;;;0.77;;
67037;SDS011;53940;53.204;6.590;2022-08-19T01:53:56;2.65;;;0.90;;
67037;SDS011;53940;53.204;6.590;2022-08-19T01:57:01;1.40;;;0.85;;
67037;SDS011;53940;53.204;6.590;2022-08-19T02:00:06;1.58;;;0.80;;
67037;SDS011;53940;53.204;6.590;2022-08-19T02:03:08;1.83;;;0.90;;
67037;SDS011;53940;53.204;6.590;2022-08-19T02:06:11;1.05;;;0.77;;
67037;SDS011;53940;53.204;6.590;2022-08-19T02:09:11;1.40;;;0.88;;
67037;SDS011;53940;53.204;6.590;2022-08-19T02:12:11;1.48;;;0.63;;
67037;SDS011;53940;53.204;6.590;2022-08-19T02:15:12;1.30;;;0.80;;
67037;SDS011;53940;53.204;6.590;2022-08-19T02:18:12;1.33;;;0.82;;
67037;SDS011;53940;53.204;6.590;2022-08-19T02:21:14;1.27;;;0.80;;
67037;SDS011;53940;53.204;6.590;2022-08-19T02:24:19;1.33;;;0.90;;
67037;SDS011;53940;53.204;6.590;2022-08-19T02:27:19;1.60;;;0.80;;
67037;SDS011;53940;53.204;6.590;2022-08-19T02:30:20;1.85;;;0.80;;
67037;SDS011;53940;53.204;6.590;2022-08-19T02:33:21;1.25;;;0.80;;
67037;SDS011;53940;53.204;6.590;2022-08-19T02:36:21;1.42;;;0.82;;
67037;SDS011;53940;53.204;6.590;2022-08-19T02:39:22;1.67;;;0.90;;
67037;SDS011;53940;53.204;6.590;2022-08-19T02:42:22;1.80;;;0.90;;
67037;SDS011;53940;53.204;6.590;2022-08-19T02:45:23;1.38;;;0.77;;
67037;SDS011;53940;53.204;6.590;2022-08-19T02:48:24;1.50;;;0.77;;
67037;SDS011;53940;53.204;6.590;2022-08-19T02:51:29;1.40;;;0.93;;
67037;SDS011;53940;53.204;6.590;2022-08-19T02:54:32;1.58;;;0.93;;
67037;SDS011;53940;53.204;6.590;2022-08-19T02:57:32;1.65;;;1.02;;
67037;SDS011;53940;53.204;6.590;2022-08-19T03:00:32;1.63;;;0.82;;
67037;SDS011;53940;53.204;6.590;2022-08-19T03:03:33;1.60;;;0.93;;
67037;SDS011;53940;53.204;6.590;2022-08-19T03:06:35;1.60;;;1.08;;
67037;SDS011;53940;53.204;6.590;2022-08-19T03:09:40;1.67;;;0.93;;
67037;SDS011;53940;53.204;6.590;2022-08-19T03:12:42;1.80;;;0.88;;
67037;SDS011;53940;53.204;6.590;2022-08-19T03:15:43;1.52;;;0.90;;
67037;SDS011;53940;53.204;6.590;2022-08-19T03:18:45;1.25;;;0.70;;
67037;SDS011;53940;53.204;6.590;2022-08-19T03:21:46;1.40;;;0.90;;
67037;SDS011;53940;53.204;6.590;2022-08-19T03:24:46;1.58;;;1.05;;
67037;SDS011;53940;53.204;6.590;2022-08-19T03:27:47;1.33;;;0.90;;
67037;SDS011;53940;53.204;6.590;2022-08-19T03:30:55;1.40;;;0.88;;
67037;SDS011;53940;53.204;6.590;2022-08-19T03:33:58;1.63;;;0.80;;
67037;SDS011;53940;53.204;6.590;2022-08-19T03:36:59;1.60;;;1.00;;
67037;SDS011;53940;53.204;6.590;2022-08-19T03:40:04;1.60;;;0.82;;
67037;SDS011;53940;53.204;6.590;2022-08-19T03:43:05;1.10;;;0.70;;
67037;SDS011;53940;53.204;6.590;2022-08-19T03:46:07;1.55;;;1.00;;
67037;SDS011;53940;53.204;6.590;2022-08-19T03:49:09;1.88;;;1.00;;
67037;SDS011;53940;53.204;6.590;2022-08-19T03:52:10;1.88;;;0.73;;
67037;SDS011;53940;53.204;6.590;2022-08-19T03:55:10;1.20;;;0.90;;
67037;SDS011;53940;53.204;6.590;2022-08-19T03:58:11;1.63;;;1.10;;
67037;SDS011;53940;53.204;6.590;2022-08-19T04:01:12;1.42;;;0.73;;
67037;SDS011;53940;53.204;6.590;2022-08-19T04:04:14;1.25;;;0.90;;
67037;SDS011;53940;53.204;6.590;2022-08-19T04:07:15;1.63;;;1.00;;
67037;SDS011;53940;53.204;6.590;2022-08-19T04:10:16;1.42;;;0.88;;
67037;SDS011;53940;53.204;6.590;2022-08-19T04:13:16;1.60;;;0.90;;
67037;SDS011;53940;53.204;6.590;2022-08-19T04:16:18;1.67;;;0.80;;
67037;SDS011;53940;53.204;6.590;2022-08-19T04:19:20;1.58;;;0.90;;
67037;SDS011;53940;53.204;6.590;2022-08-19T04:22:20;1.67;;;1.05;;
67037;SDS011;53940;53.204;6.590;2022-08-19T04:25:20;1.33;;;0.80;;
67037;SDS011;53940;53.204;6.590;2022-08-19T04:28:21;2.25;;;0.90;;
67037;SDS011;53940;53.204;6.590;2022-08-19T04:31:23;1.50;;;0.90;;
67037;SDS011;53940;53.204;6.590;2022-08-19T04:34:28;1.20;;;0.80;;
67037;SDS011;53940;53.204;6.590;2022-08-19T04:37:29;1.95;;;0.90;;
67037;SDS011;53940;53.204;6.590;2022-08-19T04:40:33;1.48;;;0.82;;
67037;SDS011;53940;53.204;6.590;2022-08-19T04:43:52;2.45;;;1.10;;
67037;SDS011;53940;53.204;6.590;2022-08-19T04:46:53;1.88;;;0.98;;
67037;SDS011;53940;53.204;6.590;2022-08-19T04:49:53;1.25;;;0.90;;
67037;SDS011;53940;53.204;6.590;2022-08-19T04:52:53;2.25;;;1.00;;
67037;SDS011;53940;53.204;6.590;2022-08-19T04:55:56;2.28;;;1.17;;
67037;SDS011;53940;53.204;6.590;2022-08-19T04:58:57;1.38;;;0.90;;
67037;SDS011;53940;53.204;6.590;2022-08-19T05:01:57;1.30;;;0.80;;
67037;SDS011;53940;53.204;6.590;2022-08-19T05:04:58;1.67;;;1.05;;
67037;SDS011;53940;53.204;6.590;2022-08-19T05:08:00;1.38;;;0.80;;
67037;SDS011;53940;53.204;6.590;2022-08-19T05:11:00;1.83;;;1.10;;
67037;SDS011;53940;53.204;6.590;2022-08-19T05:14:01;1.40;;;0.90;;
67037;SDS011;53940;53.204;6.590;2022-08-19T05:17:01;1.83;;;0.90;;
67037;SDS011;53940;53.204;6.590;2022-08-19T05:20:03;1.48;;;0.93;;
67037;SDS011;53940;53.204;6.590;2022-08-19T05:23:23;1.40;;;0.80;;
67037;SDS011;53940;53.204;6.590;2022-08-19T05:26:24;1.25;;;0.80;;
67037;SDS011;53940;53.204;6.590;2022-08-19T05:29:29;1.58;;;1.00;;
67037;SDS011;53940;53.204;6.590;2022-08-19T05:32:31;1.27;;;0.88;;
67037;SDS011;53940;53.204;6.590;2022-08-19T05:35:31;2.00;;;1.00;;
67037;SDS011;53940;53.204;6.590;2022-08-19T05:38:32;1.60;;;0.90;;
67037;SDS011;53940;53.204;6.590;2022-08-19T05:41:32;2.00;;;0.80;;
67037;SDS011;53940;53.204;6.590;2022-08-19T05:44:35;1.42;;;0.90;;
67037;SDS011;53940;53.204;6.590;2022-08-19T05:47:38;1.52;;;0.90;;
67037;SDS011;53940;53.204;6.590;2022-08-19T05:50:39;1.58;;;0.82;;
67037;SDS011;53940;53.204;6.590;2022-08-19T05:53:41;1.38;;;0.80;;
67037;SDS011;53940;53.204;6.590;2022-08-19T05:56:43;1.75;;;0.90;;
67037;SDS011;53940;53.204;6.590;2022-08-19T05:59:44;2.40;;;0.82;;
67037;SDS011;53940;53.204;6.590;2022-08-19T06:02:48;1.25;;;0.80;;
67037;SDS011;53940;53.204;6.590;2022-08-19T06:05:48;1.73;;;0.90;;
67037;SDS011;53940;53.204;6.590;2022-08-19T06:08:48;1.27;;;0.60;;
67037;SDS011;53940;53.204;6.590;2022-08-19T06:11:51;1.92;;;0.80;;
67037;SDS011;53940;53.204;6.590;2022-08-19T06:14:54;1.48;;;0.90;;
67037;SDS011;53940;53.204;6.590;2022-08-19T06:17:54;1.70;;;0.90;;
67037;SDS011;53940;53.204;6.590;2022-08-19T06:20:55;1.20;;;0.80;;
67037;SDS011;53940;53.204;6.590;2022-08-19T06:23:55;3.25;;;0.80;;
67037;SDS011;53940;53.204;6.590;2022-08-19T06:26:57;1.40;;;0.90;;
67037;SDS011;53940;53.204;6.590;2022-08-19T06:30:05;0.95;;;0.60;;
67037;SDS011;53940;53.204;6.590;2022-08-19T06:33:09;1.20;;;0.90;;
67037;SDS011;53940;53.204;6.590;2022-08-19T06:36:16;0.73;;;0.55;;
67037;SDS011;53940;53.204;6.590;2022-08-19T06:39:20;1.45;;;0.88;;
67037;SDS011;53940;53.204;6.590;2022-08-19T06:42:25;0.88;;;0.60;;
67037;SDS011;53940;53.204;6.590;2022-08-19T06:45:25;1.85;;;0.90;;
67037;SDS011;53940;53.204;6.590;2022-08-19T06:48:26;1.35;;;0.90;;
67037;SDS011;53940;53.204;6.590;2022-08-19T06:51:26;1.52;;;0.77;;
67037;SDS011;53940;53.204;6.590;2022-08-19T06:54:27;1.30;;;0.73;;
67037;SDS011;53940;53.204;6.590;2022-08-19T06:57:29;1.88;;;0.60;;
67037;SDS011;53940;53.204;6.590;2022-08-19T07:00:31;1.13;;;0.73;;
67037;SDS011;53940;53.204;6.590;2022-08-19T07:03:32;1.52;;;0.70;;
67037;SDS011;53940;53.204;6.590;2022-08-19T07:06:35;0.77;;;0.65;;
67037;SDS011;53940;53.204;6.590;2022-08-19T07:09:37;1.33;;;0.80;;
67037;SDS011;53940;53.204;6.590;2022-08-19T07:12:39;1.38;;;0.60;;
67037;SDS011;53940;53.204;6.590;2022-08-19T07:15:40;0.93;;;0.70;;
67037;SDS011;53940;53.204;6.590;2022-08-19T07:18:41;1.70;;;0.70;;
67037;SDS011;53940;53.204;6.590;2022-08-19T07:21:41;3.20;;;0.70;;
67037;SDS011;53940;53.204;6.590;2022-08-19T07:24:42;1.17;;;0.70;;
67037;SDS011;53940;53.204;6.590;2022-08-19T07:27:43;1.10;;;0.68;;
67037;SDS011;53940;53.204;6.590;2022-08-19T07:30:44;1.17;;;0.77;;
67037;SDS011;53940;53.204;6.590;2022-08-19T07:33:45;1.42;;;0.70;;
67037;SDS011;53940;53.204;6.590;2022-08-19T07:36:46;1.20;;;0.70;;
67037;SDS011;53940;53.204;6.590;2022-08-19T07:39:47;1.10;;;0.75;;
67037;SDS011;53940;53.204;6.590;2022-08-19T07:42:48;1.52;;;0.70;;
67037;SDS011;53940;53.204;6.590;2022-08-19T07:45:48;1.00;;;0.70;;
67037;SDS011;53940;53.204;6.590;2022-08-19T07:48:49;0.88;;;0.60;;
67037;SDS011;53940;53.204;6.590;2022-08-19T07:51:51;1.25;;;0.63;;
67037;SDS011;53940;53.204;6.590;2022-08-19T07:54:55;1.02;;;0.50;;
67037;SDS011;53940;53.204;6.590;2022-08-19T07:57:56;1.17;;;0.68;;
67037;SDS011;53940;53.204;6.590;2022-08-19T08:00:56;1.05;;;0.60;;
67037;SDS011;53940;53.204;6.590;2022-08-19T08:03:57;1.42;;;0.70;;
67037;SDS011;53940;53.204;6.590;2022-08-19T08:07:17;0.90;;;0.63;;
67037;SDS011;53940;53.204;6.590;2022-08-19T08:10:36;1.02;;;0.60;;
67037;SDS011;53940;53.204;6.590;2022-08-19T08:13:36;1.33;;;0.60;;
67037;SDS011;53940;53.204;6.590;2022-08-19T08:16:36;1.13;;;0.70;;
67037;SDS011;53940;53.204;6.590;2022-08-19T08:19:38;0.80;;;0.60;;
67037;SDS011;53940;53.204;6.590;2022-08-19T08:22:44;1.25;;;0.60;;
67037;SDS011;53940;53.204;6.590;2022-08-19T08:26:04;0.85;;;0.60;;
67037;SDS011;53940;53.204;6.590;2022-08-19T08:29:04;1.17;;;0.70;;
67037;SDS011;53940;53.204;6.590;2022-08-19T08:32:07;1.20;;;0.70;;
67037;SDS011;53940;53.204;6.590;2022-08-19T08:35:09;0.70;;;0.55;;
67037;SDS011;53940;53.204;6.590;2022-08-19T08:38:11;1.42;;;0.80;;
67037;SDS011;53940;53.204;6.590;2022-08-19T08:44:31;1.00;;;0.70;;
67037;SDS011;53940;53.204;6.590;2022-08-19T08:47:49;0.95;;;0.60;;
67037;SDS011;53940;53.204;6.590;2022-08-19T08:50:55;1.95;;;0.70;;
67037;SDS011;53940;53.204;6.590;2022-08-19T08:53:58;0.95;;;0.60;;
67037;SDS011;53940;53.204;6.590;2022-08-19T08:57:00;0.93;;;0.60;;
67037;SDS011;53940;53.204;6.590;2022-08-19T09:00:07;0.95;;;0.60;;
67037;SDS011;53940;53.204;6.590;2022-08-19T09:03:21;1.52;;;0.73;;
67037;SDS011;53940;53.204;6.590;2022-08-19T09:09:41;0.80;;;0.50;;
67037;SDS011;53940;53.204;6.590;2022-08-19T09:16:02;0.73;;;0.47;;
67037;SDS011;53940;53.204;6.590;2022-08-19T09:19:04;0.82;;;0.50;;
67037;SDS011;53940;53.204;6.590;2022-08-19T09:22:05;1.42;;;0.60;;
67037;SDS011;53940;53.204;6.590;2022-08-19T09:25:09;1.23;;;0.75;;
67037;SDS011;53940;53.204;6.590;2022-08-19T09:28:11;0.77;;;0.60;;
67037;SDS011;53940;53.204;6.590;2022-08-19T09:31:13;1.30;;;0.70;;
67037;SDS011;53940;53.204;6.590;2022-08-19T09:34:14;0.82;;;0.60;;
67037;SDS011;53940;53.204;6.590;2022-08-19T09:37:15;0.80;;;0.50;;
67037;SDS011;53940;53.204;6.590;2022-08-19T09:40:16;1.10;;;0.80;;
67037;SDS011;53940;53.204;6.590;2022-08-19T09:43:16;1.10;;;0.50;;
67037;SDS011;53940;53.204;6.590;2022-08-19T09:46:18;1.00;;;0.65;;
67037;SDS011;53940;53.204;6.590;2022-08-19T09:49:20;1.17;;;0.57;;
67037;SDS011;53940;53.204;6.590;2022-08-19T09:52:24;0.82;;;0.50;;
67037;SDS011;53940;53.204;6.590;2022-08-19T09:55:25;1.48;;;0.60;;
67037;SDS011;53940;53.204;6.590;2022-08-19T09:58:25;1.10;;;0.70;;
67037;SDS011;53940;53.204;6.590;2022-08-19T10:01:28;0.75;;;0.50;;
67037;SDS011;53940;53.204;6.590;2022-08-19T10:04:31;0.98;;;0.50;;
67037;SDS011;53940;53.204;6.590;2022-08-19T10:07:50;0.65;;;0.50;;
67037;SDS011;53940;53.204;6.590;2022-08-19T10:10:50;0.65;;;0.40;;
67037;SDS011;53940;53.204;6.590;2022-08-19T10:13:52;0.73;;;0.60;;
67037;SDS011;53940;53.204;6.590;2022-08-19T10:16:52;1.40;;;0.63;;
67037;SDS011;53940;53.204;6.590;2022-08-19T10:19:53;0.95;;;0.57;;
67037;SDS011;53940;53.204;6.590;2022-08-19T10:22:53;1.13;;;0.70;;
67037;SDS011;53940;53.204;6.590;2022-08-19T10:25:54;1.00;;;0.60;;
67037;SDS011;53940;53.204;6.590;2022-08-19T10:28:55;0.65;;;0.50;;
67037;SDS011;53940;53.204;6.590;2022-08-19T10:31:57;1.10;;;0.60;;
67037;SDS011;53940;53.204;6.590;2022-08-19T10:35:00;2.05;;;0.70;;
67037;SDS011;53940;53.204;6.590;2022-08-19T10:38:01;0.65;;;0.45;;
67037;SDS011;53940;53.204;6.590;2022-08-19T10:41:10;0.70;;;0.50;;
67037;SDS011;53940;53.204;6.590;2022-08-19T10:44:13;0.70;;;0.50;;
67037;SDS011;53940;53.204;6.590;2022-08-19T10:47:13;0.77;;;0.40;;
67037;SDS011;53940;53.204;6.590;2022-08-19T10:50:15;1.30;;;0.60;;
67037;SDS011;53940;53.204;6.590;2022-08-19T10:53:33;0.95;;;0.60;;
67037;SDS011;53940;53.204;6.590;2022-08-19T10:56:34;0.90;;;0.60;;
67037;SDS011;53940;53.204;6.590;2022-08-19T10:59:52;0.90;;;0.50;;
67037;SDS011;53940;53.204;6.590;2022-08-19T11:02:53;0.90;;;0.60;;
67037;SDS011;53940;53.204;6.590;2022-08-19T11:05:57;0.77;;;0.60;;
67037;SDS011;53940;53.204;6.590;2022-08-19T11:09:02;1.48;;;0.70;;
67037;SDS011;53940;53.204;6.590;2022-08-19T11:12:03;0.85;;;0.60;;
67037;SDS011;53940;53.204;6.590;2022-08-19T11:15:03;0.70;;;0.50;;
67037;SDS011;53940;53.204;6.590;2022-08-19T11:18:04;0.73;;;0.50;;
67037;SDS011;53940;53.204;6.590;2022-08-19T11:21:06;0.90;;;0.60;;
67037;SDS011;53940;53.204;6.590;2022-08-19T11:24:18;0.63;;;0.50;;
67037;SDS011;53940;53.204;6.590;2022-08-19T11:27:20;0.88;;;0.55;;
67037;SDS011;53940;53.204;6.590;2022-08-19T11:30:20;0.80;;;0.50;;
67037;SDS011;53940;53.204;6.590;2022-08-19T11:33:21;0.70;;;0.50;;
67037;SDS011;53940;53.204;6.590;2022-08-19T11:36:21;1.17;;;0.70;;
67037;SDS011;53940;53.204;6.590;2022-08-19T11:39:22;3.03;;;0.82;;
67037;SDS011;53940;53.204;6.590;2022-08-19T11:42:22;2.05;;;0.80;;
67037;SDS011;53940;53.204;6.590;2022-08-19T11:45:41;3.80;;;1.50;;
67037;SDS011;53940;53.204;6.590;2022-08-19T11:48:41;4.07;;;1.35;;
67037;SDS011;53940;53.204;6.590;2022-08-19T11:51:43;3.70;;;1.50;;
67037;SDS011;53940;53.204;6.590;2022-08-19T11:54:43;4.05;;;1.67;;
67037;SDS011;53940;53.204;6.590;2022-08-19T11:57:43;4.35;;;1.50;;
67037;SDS011;53940;53.204;6.590;2022-08-19T12:00:44;3.92;;;1.50;;
67037;SDS011;53940;53.204;6.590;2022-08-19T12:03:45;3.60;;;1.58;;
67037;SDS011;53940;53.204;6.590;2022-08-19T12:06:47;3.97;;;1.63;;
67037;SDS011;53940;53.204;6.590;2022-08-19T12:09:47;2.80;;;1.30;;
67037;SDS011;53940;53.204;6.590;2022-08-19T12:12:47;4.65;;;1.45;;
67037;SDS011;53940;53.204;6.590;2022-08-19T12:15:48;4.82;;;1.40;;
67037;SDS011;53940;53.204;6.590;2022-08-19T12:18:48;3.78;;;1.67;;
67037;SDS011;53940;53.204;6.590;2022-08-19T12:21:51;2.03;;;1.25;;
67037;SDS011;53940;53.204;6.590;2022-08-19T12:24:53;3.00;;;1.48;;
67037;SDS011;53940;53.204;6.590;2022-08-19T12:27:54;3.83;;;1.52;;
67037;SDS011;53940;53.204;6.590;2022-08-19T12:30:55;3.50;;;1.10;;
67037;SDS011;53940;53.204;6.590;2022-08-19T12:33:56;3.00;;;1.45;;
67037;SDS011;53940;53.204;6.590;2022-08-19T12:36:57;3.05;;;1.42;;
67037;SDS011;53940;53.204;6.590;2022-08-19T12:39:58;3.67;;;1.25;;
67037;SDS011;53940;53.204;6.590;2022-08-19T12:43:02;3.88;;;1.27;;
67037;SDS011;53940;53.204;6.590;2022-08-19T12:46:03;3.58;;;1.38;;
67037;SDS011;53940;53.204;6.590;2022-08-19T12:49:04;2.40;;;1.00;;
67037;SDS011;53940;53.204;6.590;2022-08-19T12:52:05;2.55;;;1.42;;
67037;SDS011;53940;53.204;6.590;2022-08-19T12:55:07;5.22;;;1.52;;
67037;SDS011;53940;53.204;6.590;2022-08-19T12:58:09;1.95;;;0.95;;
67037;SDS011;53940;53.204;6.590;2022-08-19T13:01:13;3.47;;;1.20;;
67037;SDS011;53940;53.204;6.590;2022-08-19T13:04:15;3.03;;;0.95;;
67037;SDS011;53940;53.204;6.590;2022-08-19T13:07:16;2.22;;;1.20;;
67037;SDS011;53940;53.204;6.590;2022-08-19T13:10:17;2.20;;;1.00;;
67037;SDS011;53940;53.204;6.590;2022-08-19T13:13:20;2.72;;;1.00;;
67037;SDS011;53940;53.204;6.590;2022-08-19T13:16:21;2.28;;;1.08;;
67037;SDS011;53940;53.204;6.590;2022-08-19T13:19:22;2.95;;;1.02;;
67037;SDS011;53940;53.204;6.590;2022-08-19T13:22:23;2.83;;;1.10;;
67037;SDS011;53940;53.204;6.590;2022-08-19T13:25:24;2.58;;;1.13;;
67037;SDS011;53940;53.204;6.590;2022-08-19T13:28:25;2.28;;;0.90;;
67037;SDS011;53940;53.204;6.590;2022-08-19T13:31:27;2.08;;;1.10;;
67037;SDS011;53940;53.204;6.590;2022-08-19T13:34:47;2.28;;;0.93;;
67037;SDS011;53940;53.204;6.590;2022-08-19T13:37:47;1.98;;;1.00;;
67037;SDS011;53940;53.204;6.590;2022-08-19T13:40:48;3.42;;;1.20;;
67037;SDS011;53940;53.204;6.590;2022-08-19T13:43:51;2.30;;;0.80;;
67037;SDS011;53940;53.204;6.590;2022-08-19T13:46:51;2.60;;;1.10;;
67037;SDS011;53940;53.204;6.590;2022-08-19T13:49:53;2.63;;;1.10;;
67037;SDS011;53940;53.204;6.590;2022-08-19T13:52:54;2.10;;;0.93;;
67037;SDS011;53940;53.204;6.590;2022-08-19T13:55:54;1.63;;;0.95;;
67037;SDS011;53940;53.204;6.590;2022-08-19T13:58:55;1.67;;;0.82;;
67037;SDS011;53940;53.204;6.590;2022-08-19T14:01:59;2.80;;;1.10;;
67037;SDS011;53940;53.204;6.590;2022-08-19T14:05:00;2.13;;;1.00;;
67037;SDS011;53940;53.204;6.590;2022-08-19T14:08:00;2.22;;;0.80;;
67037;SDS011;53940;53.204;6.590;2022-08-19T14:11:00;2.50;;;0.93;;
67037;SDS011;53940;53.204;6.590;2022-08-19T14:14:01;1.98;;;0.75;;
67037;SDS011;53940;53.204;6.590;2022-08-19T14:17:01;3.38;;;0.90;;
67037;SDS011;53940;53.204;6.590;2022-08-19T14:20:03;2.28;;;1.10;;
67037;SDS011;53940;53.204;6.590;2022-08-19T14:23:08;4.47;;;1.20;;
67037;SDS011;53940;53.204;6.590;2022-08-19T14:26:13;1.75;;;0.80;;
67037;SDS011;53940;53.204;6.590;2022-08-19T14:29:14;2.05;;;1.00;;
67037;SDS011;53940;53.204;6.590;2022-08-19T14:32:15;1.83;;;0.80;;
67037;SDS011;53940;53.204;6.590;2022-08-19T14:35:16;2.03;;;1.10;;
67037;SDS011;53940;53.204;6.590;2022-08-19T14:38:18;1.83;;;0.90;;
67037;SDS011;53940;53.204;6.590;2022-08-19T14:41:20;2.42;;;0.90;;
67037;SDS011;53940;53.204;6.590;2022-08-19T14:44:22;3.00;;;1.02;;
67037;SDS011;53940;53.204;6.590;2022-08-19T14:47:22;2.65;;;1.00;;
67037;SDS011;53940;53.204;6.590;2022-08-19T14:50:23;2.55;;;1.10;;
67037;SDS011;53940;53.204;6.590;2022-08-19T14:53:23;2.88;;;1.13;;
67037;SDS011;53940;53.204;6.590;2022-08-19T14:56:25;2.17;;;0.90;;
67037;SDS011;53940;53.204;6.590;2022-08-19T14:59:28;2.65;;;1.10;;
67037;SDS011;53940;53.204;6.590;2022-08-19T15:02:28;2.47;;;1.00;;
67037;SDS011;53940;53.204;6.590;2022-08-19T15:05:28;1.80;;;0.93;;
67037;SDS011;53940;53.204;6.590;2022-08-19T15:08:29;2.10;;;1.10;;
67037;SDS011;53940;53.204;6.590;2022-08-19T15:11:31;2.25;;;1.20;;
67037;SDS011;53940;53.204;6.590;2022-08-19T15:14:35;2.75;;;1.02;;
67037;SDS011;53940;53.204;6.590;2022-08-19T15:17:37;2.65;;;1.08;;
67037;SDS011;53940;53.204;6.590;2022-08-19T15:20:38;3.10;;;1.13;;
67037;SDS011;53940;53.204;6.590;2022-08-19T15:23:39;2.05;;;1.05;;
67037;SDS011;53940;53.204;6.590;2022-08-19T15:26:40;1.60;;;0.90;;
67037;SDS011;53940;53.204;6.590;2022-08-19T15:29:42;1.92;;;0.95;;
67037;SDS011;53940;53.204;6.590;2022-08-19T15:32:43;2.42;;;0.98;;
67037;SDS011;53940;53.204;6.590;2022-08-19T15:35:43;2.35;;;0.80;;
67037;SDS011;53940;53.204;6.590;2022-08-19T15:38:44;1.48;;;0.90;;
67037;SDS011;53940;53.204;6.590;2022-08-19T15:41:45;2.25;;;0.90;;
67037;SDS011;53940;53.204;6.590;2022-08-19T15:44:46;2.13;;;1.10;;
67037;SDS011;53940;53.204;6.590;2022-08-19T15:47:47;1.77;;;1.00;;
67037;SDS011;53940;53.204;6.590;2022-08-19T15:50:47;1.90;;;0.98;;
67037;SDS011;53940;53.204;6.590;2022-08-19T15:53:47;1.63;;;0.90;;
67037;SDS011;53940;53.204;6.590;2022-08-19T15:56:49;1.52;;;0.90;;
67037;SDS011;53940;53.204;6.590;2022-08-19T16:00:09;2.72;;;1.05;;
67037;SDS011;53940;53.204;6.590;2022-08-19T16:03:27;1.55;;;1.02;;
67037;SDS011;53940;53.204;6.590;2022-08-19T16:06:50;1.63;;;1.00;;
67037;SDS011;53940;53.204;6.590;2022-08-19T16:09:53;1.88;;;0.90;;
67037;SDS011;53940;53.204;6.590;2022-08-19T16:12:54;4.40;;;1.42;;
67037;SDS011;53940;53.204;6.590;2022-08-19T16:15:56;2.10;;;1.10;;
67037;SDS011;53940;53.204;6.590;2022-08-19T16:18:57;2.22;;;1.10;;
67037;SDS011;53940;53.204;6.590;2022-08-19T16:21:58;2.40;;;1.00;;
67037;SDS011;53940;53.204;6.590;2022-08-19T16:24:58;3.65;;;0.98;;
67037;SDS011;53940;53.204;6.590;2022-08-19T16:28:00;2.67;;;1.00;;
67037;SDS011;53940;53.204;6.590;2022-08-19T16:31:00;2.30;;;1.05;;
67037;SDS011;53940;53.204;6.590;2022-08-19T16:34:01;2.05;;;1.08;;
67037;SDS011;53940;53.204;6.590;2022-08-19T16:37:01;1.08;;;0.70;;
67037;SDS011;53940;53.204;6.590;2022-08-19T16:40:02;3.10;;;1.00;;
67037;SDS011;53940;53.204;6.590;2022-08-19T16:43:04;3.13;;;1.00;;
67037;SDS011;53940;53.204;6.590;2022-08-19T16:46:04;3.13;;;0.90;;
67037;SDS011;53940;53.204;6.590;2022-08-19T16:49:04;1.55;;;0.88;;
67037;SDS011;53940;53.204;6.590;2022-08-19T16:52:05;2.10;;;0.85;;
67037;SDS011;53940;53.204;6.590;2022-08-19T16:55:08;2.03;;;0.90;;
67037;SDS011;53940;53.204;6.590;2022-08-19T16:58:09;2.13;;;1.08;;
67037;SDS011;53940;53.204;6.590;2022-08-19T17:01:09;2.72;;;1.10;;
67037;SDS011;53940;53.204;6.590;2022-08-19T17:04:10;1.48;;;0.98;;
67037;SDS011;53940;53.204;6.590;2022-08-19T17:07:11;1.70;;;0.88;;
67037;SDS011;53940;53.204;6.590;2022-08-19T17:10:13;1.92;;;0.98;;
67037;SDS011;53940;53.204;6.590;2022-08-19T17:13:14;1.23;;;0.73;;
67037;SDS011;53940;53.204;6.590;2022-08-19T17:16:15;2.70;;;1.30;;
67037;SDS011;53940;53.204;6.590;2022-08-19T17:19:16;1.67;;;0.88;;
67037;SDS011;53940;53.204;6.590;2022-08-19T17:22:17;2.47;;;1.10;;
67037;SDS011;53940;53.204;6.590;2022-08-19T17:25:17;1.48;;;0.85;;
67037;SDS011;53940;53.204;6.590;2022-08-19T17:28:28;2.53;;;1.10;;
67037;SDS011;53940;53.204;6.590;2022-08-19T17:31:29;1.70;;;0.90;;
67037;SDS011;53940;53.204;6.590;2022-08-19T17:34:30;2.97;;;1.02;;
67037;SDS011;53940;53.204;6.590;2022-08-19T17:37:31;2.15;;;0.90;;
67037;SDS011;53940;53.204;6.590;2022-08-19T17:40:33;1.60;;;0.80;;
67037;SDS011;53940;53.204;6.590;2022-08-19T17:43:34;1.88;;;1.15;;
67037;SDS011;53940;53.204;6.590;2022-08-19T17:46:35;2.60;;;0.80;;
67037;SDS011;53940;53.204;6.590;2022-08-19T17:49:35;1.42;;;0.70;;
67037;SDS011;53940;53.204;6.590;2022-08-19T17:52:36;2.92;;;1.00;;
67037;SDS011;53940;53.204;6.590;2022-08-19T17:55:36;1.60;;;0.90;;
67037;SDS011;53940;53.204;6.590;2022-08-19T17:58:37;3.78;;;0.80;;
67037;SDS011;53940;53.204;6.590;2022-08-19T18:01:39;1.52;;;0.80;;
67037;SDS011;53940;53.204;6.590;2022-08-19T18:04:40;1.42;;;0.70;;
67037;SDS011;53940;53.204;6.590;2022-08-19T18:07:41;1.70;;;0.80;;
67037;SDS011;53940;53.204;6.590;2022-08-19T18:10:42;1.35;;;0.75;;
67037;SDS011;53940;53.204;6.590;2022-08-19T18:13:42;2.35;;;0.88;;
67037;SDS011;53940;53.204;6.590;2022-08-19T18:16:42;1.70;;;0.80;;
67037;SDS011;53940;53.204;6.590;2022-08-19T18:19:44;1.80;;;0.80;;
67037;SDS011;53940;53.204;6.590;2022-08-19T18:22:47;1.10;;;0.60;;
67037;SDS011;53940;53.204;6.590;2022-08-19T18:25:49;1.52;;;0.75;;
67037;SDS011;53940;53.204;6.590;2022-08-19T18:28:49;1.25;;;0.75;;